Time;durP1;ratioP1;P1;durP2;ratioP2;P2;SDS_P1;SDS_P2;PMS_P1;PMS_P2;Temp;Humidity;BMP_temperature;BMP_pressure;BME280_temperature;BME280_humidity;BME280_pressure;Samples;Min_cycle;Max_cycle;Signal;HPM_P1;HPM_P2
2021/04/18 00:01:59;;;;;;;12.47;9.03;;;6.00;99.90;;;;;;5064193;28;20459;-51
2021/04/18 00:04:25;;;;;;;11.10;8.60;;;6.00;99.90;;;;;;5068394;28;20458;-51
2021/04/18 00:06:52;;;;;;;11.50;8.93;;;6.00;99.90;;;;;;5066431;28;20440;-50
2021/04/18 00:09:18;;;;;;;12.70;8.97;;;6.10;99.90;;;;;;5062351;28;20497;-51
2021/04/18 00:11:45;;;;;;;11.53;8.53;;;6.00;99.90;;;;;;5067254;28;20820;-51
2021/04/18 00:14:12;;;;;;;14.60;9.00;;;5.90;99.90;;;;;;5061053;28;20465;-50
2021/04/18 00:16:40;;;;;;;13.00;9.13;;;5.90;99.90;;;;;;5069673;28;20467;-50
2021/04/18 00:19:07;;;;;;;12.43;8.80;;;5.90;99.90;;;;;;5069628;28;20960;-51
2021/04/18 00:21:34;;;;;;;14.47;9.23;;;5.90;99.90;;;;;;5062682;28;20955;-51
2021/04/18 00:24:01;;;;;;;11.20;8.07;;;6.00;99.90;;;;;;5064817;28;20464;-51
2021/04/18 00:26:29;;;;;;;13.57;8.97;;;6.00;99.90;;;;;;5067800;28;20478;-51
2021/04/18 00:28:55;;;;;;;13.90;8.67;;;6.10;99.90;;;;;;5069079;28;20853;-51
2021/04/18 00:31:23;;;;;;;12.43;8.67;;;6.00;99.90;;;;;;5061693;28;20471;-51
2021/04/18 00:33:49;;;;;;;14.80;9.30;;;6.00;99.90;;;;;;5068431;28;20463;-51
2021/04/18 00:36:16;;;;;;;12.70;8.43;;;5.90;99.90;;;;;;5066054;28;20529;-51
2021/04/18 00:38:42;;;;;;;16.27;9.40;;;5.90;99.90;;;;;;5068961;28;20525;-51
2021/04/18 00:41:08;;;;;;;13.57;8.97;;;5.90;99.90;;;;;;5072678;28;21019;-51
2021/04/18 00:43:40;;;;;;;13.87;8.73;;;5.80;99.90;;;;;;5072121;28;20833;-51
2021/04/18 00:46:07;;;;;;;13.63;9.97;;;5.90;99.90;;;;;;5070164;28;20473;-51
2021/04/18 00:48:39;;;;;;;13.40;8.80;;;5.80;99.90;;;;;;5072575;28;20542;-51
2021/04/18 00:51:06;;;;;;;11.60;8.37;;;5.80;99.90;;;;;;5059544;28;21009;-51
2021/04/18 00:53:32;;;;;;;15.83;9.30;;;5.80;99.90;;;;;;5072959;28;20511;-50
2021/04/18 00:55:59;;;;;;;14.03;8.70;;;5.90;99.90;;;;;;5074290;28;20447;-51
2021/04/18 00:58:25;;;;;;;13.83;9.50;;;5.90;99.90;;;;;;5073815;28;20504;-51
2021/04/18 01:00:52;;;;;;;12.37;8.33;;;5.70;99.90;;;;;;5073663;28;20470;-51
2021/04/18 01:03:18;;;;;;;11.67;8.80;;;5.70;99.90;;;;;;5073097;28;20450;-51
2021/04/18 01:05:46;;;;;;;14.17;8.97;;;5.80;99.90;;;;;;5074262;28;20470;-51
2021/04/18 01:08:13;;;;;;;14.07;9.27;;;5.80;99.90;;;;;;5073896;28;20507;-51
2021/04/18 01:10:40;;;;;;;14.80;9.10;;;5.80;99.90;;;;;;5073534;28;20470;-51
2021/04/18 01:13:07;;;;;;;12.57;8.73;;;5.70;99.90;;;;;;5073175;28;20948;-51
2021/04/18 01:15:33;;;;;;;11.83;8.80;;;5.70;99.90;;;;;;5073950;28;20450;-51
2021/04/18 01:17:59;;;;;;;12.20;8.97;;;5.70;99.90;;;;;;5073664;28;20443;-51
2021/04/18 01:20:26;;;;;;;16.07;9.63;;;5.70;99.90;;;;;;5073553;28;20479;-51
2021/04/18 01:22:54;;;;;;;13.27;9.20;;;5.70;99.90;;;;;;5073195;28;20458;-50
2021/04/18 01:25:21;;;;;;;10.20;8.40;;;5.60;99.90;;;;;;5059183;28;20483;-50
2021/04/18 01:27:49;;;;;;;13.90;10.00;;;5.50;99.90;;;;;;5071811;28;20555;-51
2021/04/18 01:30:17;;;;;;;15.13;9.87;;;5.50;99.90;;;;;;5073151;28;20474;-51
2021/04/18 01:32:45;;;;;;;12.97;9.47;;;5.50;99.90;;;;;;5072999;28;20509;-51
2021/04/18 01:35:13;;;;;;;13.27;9.80;;;5.50;99.90;;;;;;5073828;28;20451;-51
2021/04/18 01:37:40;;;;;;;14.00;9.30;;;5.40;99.90;;;;;;5073126;28;20453;-51
2021/04/18 01:40:11;;;;;;;13.37;9.43;;;5.40;99.90;;;;;;5073310;28;20467;-50
2021/04/18 01:42:38;;;;;;;12.47;10.13;;;5.50;99.90;;;;;;5072587;28;20458;-50
2021/04/18 01:45:06;;;;;;;13.13;10.07;;;5.50;99.90;;;;;;5073416;28;20528;-50
2021/04/18 01:47:35;;;;;;;16.40;10.53;;;5.50;99.90;;;;;;5072419;28;20491;-51
2021/04/18 01:50:02;;;;;;;13.40;10.00;;;5.40;99.90;;;;;;5072940;28;20473;-50
2021/04/18 01:52:29;;;;;;;12.17;9.53;;;5.40;99.90;;;;;;5072531;28;20454;-49
2021/04/18 01:54:55;;;;;;;15.23;10.30;;;5.50;99.90;;;;;;5072780;28;20511;-48
2021/04/18 01:57:23;;;;;;;16.00;10.40;;;5.50;99.90;;;;;;5073102;28;20451;-49
2021/04/18 01:59:49;;;;;;;13.87;10.00;;;5.50;99.90;;;;;;5072573;28;20473;-49
2021/04/18 02:02:15;;;;;;;14.33;10.63;;;5.60;99.90;;;;;;5072498;28;20497;-50
2021/04/18 02:04:42;;;;;;;15.67;10.30;;;5.60;99.90;;;;;;5072681;28;20964;-50
2021/04/18 02:07:09;;;;;;;15.40;10.60;;;5.50;99.90;;;;;;5072599;28;20446;-50
2021/04/18 02:09:36;;;;;;;15.00;10.67;;;5.50;99.90;;;;;;5072246;28;20986;-51
2021/04/18 02:12:05;;;;;;;12.73;9.87;;;5.60;99.90;;;;;;5072446;28;20461;-51
2021/04/18 02:14:34;;;;;;;16.80;9.90;;;5.70;99.90;;;;;;5073009;28;20595;-50
2021/04/18 02:17:01;;;;;;;15.20;10.30;;;5.70;99.90;;;;;;5072485;28;20457;-50
2021/04/18 02:19:28;;;;;;;15.10;10.80;;;5.60;99.90;;;;;;5097383;22;20880;-52
2021/04/18 02:21:54;;;;;;;17.97;11.27;;;5.50;99.90;;;;;;5091390;28;20477;-51
2021/04/18 02:24:21;;;;;;;15.20;10.13;;;5.50;99.90;;;;;;5093234;28;20452;-51
2021/04/18 02:26:48;;;;;;;14.17;10.90;;;5.40;99.90;;;;;;5092763;28;20452;-51
2021/04/18 02:29:14;;;;;;;17.50;10.83;;;5.30;99.90;;;;;;5092674;28;20526;-51
2021/04/18 02:31:42;;;;;;;16.17;10.63;;;5.40;99.90;;;;;;5073077;28;20529;-51
2021/04/18 02:34:09;;;;;;;15.63;11.00;;;5.30;99.90;;;;;;5071898;28;20508;-51
2021/04/18 02:36:35;;;;;;;14.80;10.37;;;5.30;99.90;;;;;;5072354;28;20455;-51
2021/04/18 02:39:03;;;;;;;14.50;11.00;;;5.30;99.90;;;;;;5072034;28;20520;-51
2021/04/18 02:41:29;;;;;;;14.80;10.70;;;5.20;99.90;;;;;;5072132;28;20479;-51
2021/04/18 02:43:56;;;;;;;18.17;11.60;;;5.30;99.90;;;;;;5072278;28;20462;-51
2021/04/18 02:46:22;;;;;;;13.13;10.00;;;5.20;99.90;;;;;;5071734;28;20797;-51
2021/04/18 02:48:50;;;;;;;16.43;11.40;;;5.20;99.90;;;;;;5071590;28;20485;-51
2021/04/18 02:51:16;;;;;;;16.97;10.60;;;5.10;99.90;;;;;;5072010;28;20899;-51
2021/04/18 02:53:42;;;;;;;15.97;10.03;;;5.10;99.90;;;;;;5072290;28;20507;-51
2021/04/18 02:56:09;;;;;;;18.70;11.43;;;5.10;99.90;;;;;;5072024;28;20452;-51
2021/04/18 02:58:35;;;;;;;14.27;10.27;;;5.10;99.90;;;;;;5070736;28;20814;-53
2021/04/18 03:01:02;;;;;;;14.43;10.10;;;5.10;99.90;;;;;;5070955;28;20466;-51
2021/04/18 03:03:28;;;;;;;17.77;10.60;;;5.20;99.90;;;;;;5071702;28;20472;-54
2021/04/18 03:05:56;;;;;;;16.30;11.30;;;5.10;99.90;;;;;;5071784;28;20454;-51
2021/04/18 03:08:22;;;;;;;14.63;11.30;;;5.20;99.90;;;;;;5071843;28;20478;-51
2021/04/18 03:10:49;;;;;;;17.10;10.97;;;5.10;99.90;;;;;;5071459;28;20470;-54
2021/04/18 03:13:15;;;;;;;15.70;10.77;;;5.00;99.90;;;;;;5071876;28;20451;-51
2021/04/18 03:15:42;;;;;;;15.73;10.87;;;5.00;99.90;;;;;;5071581;28;20472;-51
2021/04/18 03:18:08;;;;;;;13.67;10.00;;;5.00;99.90;;;;;;5071222;28;20531;-51
2021/04/18 03:20:35;;;;;;;18.03;10.90;;;5.00;99.90;;;;;;5071462;28;20533;-51
2021/04/18 03:23:02;;;;;;;15.63;10.40;;;5.00;99.90;;;;;;5071643;28;20455;-51
2021/04/18 03:25:28;;;;;;;16.90;10.80;;;5.10;99.90;;;;;;5071899;28;20447;-51
2021/04/18 03:27:55;;;;;;;15.83;11.03;;;5.00;99.90;;;;;;5068905;28;20542;-54
2021/04/18 03:30:22;;;;;;;16.20;10.60;;;4.90;99.90;;;;;;5061046;28;20473;-54
2021/04/18 03:32:48;;;;;;;15.33;10.40;;;5.00;99.90;;;;;;5071124;28;20860;-51
2021/04/18 03:35:16;;;;;;;18.23;12.47;;;5.10;99.90;;;;;;5071390;28;20828;-51
2021/04/18 03:37:43;;;;;;;17.07;11.20;;;5.10;99.90;;;;;;5071360;28;21109;-51
2021/04/18 03:40:11;;;;;;;19.37;11.87;;;5.10;99.90;;;;;;5071051;28;20478;-51
2021/04/18 03:42:37;;;;;;;16.77;10.17;;;5.00;99.90;;;;;;5071073;28;20456;-51
2021/04/18 03:45:05;;;;;;;19.77;11.67;;;4.90;99.90;;;;;;5070714;28;20842;-51
2021/04/18 03:47:31;;;;;;;17.00;10.53;;;4.90;99.90;;;;;;5071481;28;20509;-51
2021/04/18 03:49:57;;;;;;;19.10;11.50;;;5.00;99.90;;;;;;5071471;28;20478;-51
2021/04/18 03:52:24;;;;;;;16.60;11.30;;;4.90;99.90;;;;;;5071374;28;20453;-51
2021/04/18 03:54:50;;;;;;;17.03;11.13;;;4.90;99.90;;;;;;5071257;28;20453;-51
2021/04/18 03:57:18;;;;;;;18.37;11.70;;;5.10;99.90;;;;;;5071333;28;20458;-51
2021/04/18 03:59:45;;;;;;;15.67;10.77;;;5.10;99.90;;;;;;5070734;28;20472;-51
2021/04/18 04:02:11;;;;;;;17.60;10.50;;;5.10;99.90;;;;;;5071445;28;20455;-51
2021/04/18 04:04:38;;;;;;;17.90;12.20;;;5.10;99.90;;;;;;5063173;28;20948;-51
2021/04/18 04:07:04;;;;;;;19.73;10.80;;;5.10;99.90;;;;;;5051425;28;20515;-51
2021/04/18 04:09:31;;;;;;;17.87;11.47;;;5.10;99.90;;;;;;5050921;28;21011;-51
2021/04/18 04:11:58;;;;;;;18.70;12.37;;;5.10;99.90;;;;;;5062984;28;20533;-51
2021/04/18 04:14:25;;;;;;;17.70;11.73;;;5.00;99.90;;;;;;5074474;28;20463;-51
2021/04/18 04:16:52;;;;;;;19.57;12.07;;;5.00;99.90;;;;;;5075317;28;20454;-51
2021/04/18 04:19:18;;;;;;;19.23;11.47;;;5.10;99.90;;;;;;5074888;28;20452;-51
2021/04/18 04:21:45;;;;;;;18.13;12.37;;;5.10;99.90;;;;;;5054903;28;20479;-51
2021/04/18 04:24:11;;;;;;;18.80;11.90;;;5.10;99.90;;;;;;5074485;28;20453;-51
2021/04/18 04:26:38;;;;;;;17.93;12.03;;;5.10;99.90;;;;;;5074408;28;20455;-52
2021/04/18 04:29:04;;;;;;;17.80;11.87;;;5.20;99.90;;;;;;5073709;28;20488;-51
2021/04/18 04:31:31;;;;;;;20.17;12.20;;;5.10;99.90;;;;;;5073803;28;20476;-51
2021/04/18 04:33:58;;;;;;;18.50;11.27;;;5.10;99.90;;;;;;5074891;28;20883;-51
2021/04/18 04:36:25;;;;;;;16.43;10.80;;;5.10;99.90;;;;;;5074413;28;20515;-51
2021/04/18 04:38:51;;;;;;;18.90;11.73;;;5.10;99.90;;;;;;5074183;28;20822;-51
2021/04/18 04:41:18;;;;;;;21.17;12.43;;;5.10;99.90;;;;;;5074234;28;21025;-51
2021/04/18 04:43:45;;;;;;;15.93;11.43;;;5.10;99.90;;;;;;5074839;28;20446;-51
2021/04/18 04:46:12;;;;;;;19.60;12.87;;;5.10;99.90;;;;;;5074482;28;20447;-51
2021/04/18 04:48:40;;;;;;;18.17;12.30;;;5.20;99.90;;;;;;5074326;28;20481;-51
2021/04/18 04:51:07;;;;;;;19.23;11.70;;;5.10;99.90;;;;;;5073987;28;20471;-50
2021/04/18 04:53:33;;;;;;;20.87;13.40;;;5.10;99.90;;;;;;5074183;28;20449;-51
2021/04/18 04:56:00;;;;;;;19.77;13.00;;;5.10;99.90;;;;;;5074653;28;20447;-51
2021/04/18 04:58:26;;;;;;;20.17;12.70;;;5.20;99.90;;;;;;5073961;28;20878;-51
2021/04/18 05:00:53;;;;;;;17.80;12.00;;;5.30;99.90;;;;;;5073198;28;21020;-50
2021/04/18 05:03:20;;;;;;;22.47;13.53;;;5.30;99.90;;;;;;5073791;28;20456;-51
2021/04/18 05:05:47;;;;;;;18.30;12.93;;;5.30;99.90;;;;;;5074015;28;20537;-51
2021/04/18 05:08:13;;;;;;;22.13;13.97;;;5.30;99.90;;;;;;5072504;28;20551;-51
2021/04/18 05:10:40;;;;;;;22.83;13.30;;;5.20;99.90;;;;;;5074066;28;20528;-51
2021/04/18 05:13:07;;;;;;;19.23;12.80;;;5.20;99.90;;;;;;5074047;28;20457;-51
2021/04/18 05:15:37;;;;;;;20.13;12.80;;;5.20;99.90;;;;;;5073835;28;20453;-51
2021/04/18 05:18:04;;;;;;;20.30;13.10;;;5.10;99.90;;;;;;5073488;28;20447;-51
2021/04/18 05:20:31;;;;;;;24.13;13.83;;;5.20;99.90;;;;;;5073901;28;20561;-51
2021/04/18 05:22:59;;;;;;;19.50;13.50;;;5.10;99.90;;;;;;5057969;28;20448;-51
2021/04/18 05:25:26;;;;;;;18.83;13.07;;;5.10;99.90;;;;;;5053741;28;20944;-51
2021/04/18 05:27:54;;;;;;;21.73;13.40;;;5.00;99.90;;;;;;5054079;28;20487;-51
2021/04/18 05:30:21;;;;;;;25.97;13.10;;;5.10;99.90;;;;;;5073768;28;20485;-51
2021/04/18 05:32:48;;;;;;;24.70;13.43;;;5.10;99.90;;;;;;5073805;28;20816;-51
2021/04/18 05:35:15;;;;;;;22.87;14.23;;;5.00;99.90;;;;;;5057218;28;20861;-51
2021/04/18 05:37:43;;;;;;;23.67;13.90;;;5.10;99.90;;;;;;5072404;28;20488;-51
2021/04/18 05:40:11;;;;;;;21.20;13.57;;;5.20;99.90;;;;;;5073388;28;20470;-51
2021/04/18 05:42:38;;;;;;;22.77;14.03;;;5.30;99.90;;;;;;5073691;28;20460;-51
2021/04/18 05:45:06;;;;;;;20.03;13.53;;;5.30;99.90;;;;;;5071741;28;20470;-51
2021/04/18 05:47:32;;;;;;;24.47;13.97;;;5.30;99.90;;;;;;5072530;28;20455;-51
2021/04/18 05:49:59;;;;;;;23.50;14.40;;;5.30;99.90;;;;;;5073162;28;20474;-51
2021/04/18 05:52:25;;;;;;;19.80;13.60;;;5.30;99.90;;;;;;5072001;28;20884;-50
2021/04/18 05:54:52;;;;;;;20.80;13.53;;;5.20;99.90;;;;;;5070740;28;20456;-51
2021/04/18 05:57:20;;;;;;;21.43;13.47;;;5.30;99.90;;;;;;5071457;28;20473;-51
2021/04/18 05:59:46;;;;;;;22.80;13.47;;;5.40;99.90;;;;;;5067569;28;20500;-51
2021/04/18 06:02:13;;;;;;;22.80;14.17;;;5.40;99.90;;;;;;5056504;28;20819;-51
2021/04/18 06:04:39;;;;;;;22.50;13.63;;;5.30;99.90;;;;;;5072005;28;20461;-51
2021/04/18 06:07:06;;;;;;;19.63;13.57;;;5.30;99.90;;;;;;5068947;28;20450;-51
2021/04/18 06:09:33;;;;;;;25.97;14.93;;;5.20;99.90;;;;;;5066812;28;20481;-51
2021/04/18 06:11:59;;;;;;;25.57;13.93;;;5.10;99.90;;;;;;5066459;28;20486;-51
2021/04/18 06:14:27;;;;;;;23.47;14.37;;;5.20;99.90;;;;;;5072956;28;20443;-51
2021/04/18 06:16:53;;;;;;;23.23;13.90;;;5.20;99.90;;;;;;5072874;28;20478;-53
2021/04/18 06:19:20;;;;;;;26.40;14.73;;;5.10;99.90;;;;;;5072639;28;20453;-51
2021/04/18 06:21:46;;;;;;;25.07;15.00;;;5.20;99.90;;;;;;5072628;28;20488;-51
2021/04/18 06:24:13;;;;;;;23.03;14.80;;;5.10;99.90;;;;;;5072542;28;20462;-53
2021/04/18 06:26:39;;;;;;;22.70;14.70;;;5.10;99.90;;;;;;5071386;28;20858;-52
2021/04/18 06:29:06;;;;;;;24.30;15.23;;;5.20;99.90;;;;;;5072427;28;20493;-51
2021/04/18 06:31:33;;;;;;;28.80;16.60;;;5.40;99.90;;;;;;5069952;28;20861;-51
2021/04/18 06:34:00;;;;;;;19.97;13.60;;;5.60;99.90;;;;;;5068094;28;20999;-51
2021/04/18 06:36:27;;;;;;;21.00;13.93;;;5.60;99.90;;;;;;5063888;28;20447;-51
2021/04/18 06:38:53;;;;;;;22.97;14.53;;;5.60;99.90;;;;;;5058161;28;20443;-52
2021/04/18 06:41:22;;;;;;;19.60;13.73;;;5.70;99.90;;;;;;5062678;28;20856;-51
2021/04/18 06:43:50;;;;;;;35.20;17.27;;;5.70;99.90;;;;;;5052480;28;20451;-51
2021/04/18 06:46:17;;;;;;;27.37;15.17;;;5.80;99.90;;;;;;5052365;28;21020;-51
2021/04/18 06:48:45;;;;;;;26.27;14.73;;;5.90;99.90;;;;;;5058423;28;20482;-50
2021/04/18 06:51:12;;;;;;;24.37;14.50;;;6.00;99.90;;;;;;5072220;28;20463;-54
2021/04/18 06:53:38;;;;;;;22.63;14.57;;;5.90;99.90;;;;;;5072063;28;20453;-51
2021/04/18 06:56:06;;;;;;;19.87;13.83;;;6.10;99.90;;;;;;5072195;28;20451;-51
2021/04/18 06:58:34;;;;;;;21.57;13.47;;;6.20;99.90;;;;;;5072084;28;20477;-51
2021/04/18 07:01:00;;;;;;;19.80;13.00;;;6.30;99.90;;;;;;5070382;28;20471;-51
2021/04/18 07:03:27;;;;;;;21.20;13.70;;;6.30;99.90;;;;;;5072780;28;20455;-51
2021/04/18 07:05:57;;;;;;;21.40;13.63;;;6.40;99.90;;;;;;5074602;28;20512;-54
2021/04/18 07:08:25;;;;;;;24.60;15.50;;;6.60;99.90;;;;;;5074792;28;20474;-51
2021/04/18 07:11:09;;;;;;;21.60;14.17;;;6.30;99.90;;;;;;5070408;28;21023;-53
2021/04/18 07:13:36;;;;;;;25.30;15.37;;;6.20;99.90;;;;;;5073569;28;20450;-50
2021/04/18 07:16:02;;;;;;;22.60;14.30;;;6.20;99.90;;;;;;5071256;28;20460;-51
2021/04/18 07:18:40;;;;;;;24.17;15.00;;;6.40;99.90;;;;;;5070614;28;20851;-51
2021/04/18 07:21:08;;;;;;;23.83;13.83;;;6.60;99.90;;;;;;5073430;28;20479;-54
2021/04/18 07:23:35;;;;;;;20.67;13.80;;;6.60;99.90;;;;;;5074040;28;20496;-51
2021/04/18 07:26:20;;;;;;;22.73;13.77;;;6.50;99.90;;;;;;5074624;28;20443;-51
2021/04/18 07:28:47;;;;;;;19.87;13.70;;;6.70;99.90;;;;;;5075068;28;20489;-50
2021/04/18 07:31:29;;;;;;;22.80;14.37;;;6.60;99.90;;;;;;5074963;28;20478;-50
2021/04/18 07:34:04;;;;;;;20.30;13.87;;;6.70;99.90;;;;;;5074442;28;20450;-50
2021/04/18 07:36:32;;;;;;;24.13;15.43;;;6.80;99.90;;;;;;5064573;28;20823;-51
2021/04/18 07:38:59;;;;;;;21.70;14.70;;;6.90;99.90;;;;;;5054405;28;20450;-51
2021/04/18 07:41:26;;;;;;;24.23;14.73;;;6.80;99.90;;;;;;5074316;28;20466;-51
2021/04/18 07:43:53;;;;;;;21.67;14.67;;;6.80;99.90;;;;;;5073449;28;20473;-51
2021/04/18 07:46:21;;;;;;;20.43;14.00;;;6.80;99.90;;;;;;5073986;28;20442;-51
2021/04/18 07:48:49;;;;;;;24.47;14.47;;;6.90;99.90;;;;;;5075581;28;20474;-51
2021/04/18 07:51:18;;;;;;;20.70;14.17;;;6.70;99.90;;;;;;5075423;28;20470;-51
2021/04/18 07:53:46;;;;;;;20.70;13.43;;;6.90;99.90;;;;;;5073196;28;20541;-51
2021/04/18 07:56:14;;;;;;;19.10;13.13;;;6.90;99.90;;;;;;5072163;28;20494;-51
2021/04/18 07:58:42;;;;;;;20.40;14.07;;;7.20;99.90;;;;;;5074452;28;20454;-51
2021/04/18 08:01:09;;;;;;;23.37;14.20;;;7.40;99.90;;;;;;5074831;28;20493;-51
2021/04/18 08:03:37;;;;;;;23.52;16.20;;;7.60;99.90;;;;;;5071631;28;20457;-51
2021/04/18 08:06:04;;;;;;;29.67;15.80;;;7.90;99.90;;;;;;5066641;28;20197;-50
2021/04/18 08:08:52;;;;;;;19.70;13.80;;;7.90;99.90;;;;;;5074142;28;20574;-51
2021/04/18 08:11:21;;;;;;;19.83;13.07;;;8.30;99.90;;;;;;5063878;28;20471;-51
2021/04/18 08:13:49;;;;;;;18.67;13.23;;;8.40;99.90;;;;;;5075138;28;20450;-53
2021/04/18 08:16:26;;;;;;;21.70;13.73;;;8.60;99.90;;;;;;5073474;28;20484;-50
2021/04/18 08:18:53;;;;;;;19.17;14.30;;;8.70;99.90;;;;;;5073931;28;20443;-50
2021/04/18 08:21:30;;;;;;;20.80;13.53;;;8.80;99.90;;;;;;5074779;28;20503;-51
2021/04/18 08:23:58;;;;;;;22.93;14.00;;;8.90;99.90;;;;;;5074437;28;20469;-51
2021/04/18 08:26:26;;;;;;;22.37;14.50;;;9.00;99.90;;;;;;5074523;28;20584;-52
2021/04/18 08:29:14;;;;;;;21.20;13.93;;;8.90;99.90;;;;;;5074471;28;21079;-51
2021/04/18 08:32:09;;;;;;;19.90;14.63;;;9.40;99.90;;;;;;5054900;28;20469;-52
2021/04/18 08:34:38;;;;;;;20.70;13.37;;;9.70;99.90;;;;;;5097844;22;20549;-52
2021/04/18 08:37:13;;;;;;;23.80;16.20;;;9.60;99.90;;;;;;5074961;28;20448;-51
2021/04/18 08:39:40;;;;;;;21.53;15.07;;;9.30;99.90;;;;;;5075464;28;20529;-51
2021/04/18 08:42:09;;;;;;;20.87;14.87;;;9.40;99.90;;;;;;5054532;28;20447;-51
2021/04/18 08:44:45;;;;;;;22.03;14.60;;;9.20;99.90;;;;;;5054318;28;20465;-51
2021/04/18 08:47:14;;;;;;;22.63;15.00;;;9.20;99.90;;;;;;5067826;28;20801;-51
2021/04/18 08:49:43;;;;;;;19.67;14.23;;;9.80;99.90;;;;;;5073330;28;20580;-52
2021/04/18 08:52:11;;;;;;;19.23;14.20;;;10.40;99.90;;;;;;5074247;28;20458;-53
2021/04/18 08:54:41;;;;;;;18.57;13.43;;;11.20;99.90;;;;;;5074139;28;21058;-52
2021/04/18 08:57:10;;;;;;;18.23;14.27;;;11.70;99.90;;;;;;5072743;28;20951;-51
2021/04/18 08:59:37;;;;;;;18.73;13.53;;;11.60;99.90;;;;;;5073380;28;20525;-52
2021/04/18 09:02:06;;;;;;;19.40;13.50;;;11.20;99.90;;;;;;5073438;28;20500;-53
2021/04/18 09:04:34;;;;;;;18.03;13.70;;;11.50;99.90;;;;;;5073433;28;20572;-53
2021/04/18 09:07:02;;;;;;;17.40;13.83;;;11.80;99.90;;;;;;5072627;28;20454;-53
2021/04/18 09:09:29;;;;;;;21.67;15.17;;;12.00;99.90;;;;;;5069570;28;20482;-50
2021/04/18 09:11:58;;;;;;;22.77;14.73;;;11.20;99.90;;;;;;5067676;28;20459;-49
2021/04/18 09:14:29;;;;;;;20.50;14.23;;;10.70;99.90;;;;;;5072437;28;20487;-52
2021/04/18 09:17:13;;;;;;;21.67;15.27;;;10.60;99.90;;;;;;5074053;28;20876;-53
2021/04/18 09:19:40;;;;;;;23.80;15.57;;;11.10;99.90;;;;;;5073503;28;20450;-49
2021/04/18 09:22:09;;;;;;;22.37;15.10;;;10.50;99.90;;;;;;5073314;28;20447;-50
2021/04/18 09:24:41;;;;;;;21.23;15.27;;;9.90;99.90;;;;;;5073118;28;20845;-50
2021/04/18 09:27:11;;;;;;;22.17;15.37;;;9.60;99.90;;;;;;5073080;28;20456;-50
2021/04/18 09:29:46;;;;;;;18.17;14.07;;;9.90;99.90;;;;;;5073497;28;20488;-53
2021/04/18 09:32:15;;;;;;;20.33;14.40;;;9.80;99.90;;;;;;5073063;28;20457;-50
2021/04/18 09:34:43;;;;;;;20.20;15.00;;;10.40;99.90;;;;;;5073063;28;20481;-50
2021/04/18 09:37:14;;;;;;;17.90;13.97;;;11.00;99.90;;;;;;5073442;28;20461;-51
2021/04/18 09:39:41;;;;;;;19.67;15.37;;;11.20;99.90;;;;;;5073332;28;20458;-51
2021/04/18 09:42:09;;;;;;;20.07;15.27;;;12.20;99.90;;;;;;5072441;28;20480;-50
2021/04/18 09:44:41;;;;;;;21.10;15.00;;;11.60;99.90;;;;;;5072913;28;20466;-51
2021/04/18 09:47:18;;;;;;;19.40;14.80;;;12.00;99.90;;;;;;5073044;28;20455;-51
2021/04/18 09:49:52;;;;;;;21.23;15.23;;;11.80;99.90;;;;;;5072324;28;20478;-52
2021/04/18 09:52:33;;;;;;;19.97;14.63;;;11.70;99.90;;;;;;5073277;28;20462;-51
2021/04/18 09:55:13;;;;;;;22.00;15.50;;;11.30;99.90;;;;;;5072022;28;20466;-51
2021/04/18 09:57:45;;;;;;;19.80;14.67;;;11.50;99.90;;;;;;5072804;28;20872;-52
2021/04/18 10:00:25;;;;;;;24.20;15.90;;;11.50;99.90;;;;;;5072743;28;20936;-50
2021/04/18 10:03:03;;;;;;;23.83;16.37;;;11.10;99.90;;;;;;5073013;28;20447;-51
2021/04/18 10:05:32;;;;;;;23.40;17.17;;;10.60;99.90;;;;;;5072674;28;20503;-51
2021/04/18 10:08:19;;;;;;;24.00;17.53;;;10.60;99.90;;;;;;5069115;28;20941;-51
2021/04/18 10:10:47;;;;;;;27.37;16.90;;;10.60;99.90;;;;;;5070040;28;20450;-52
2021/04/18 10:13:14;;;;;;;24.50;17.23;;;10.90;99.90;;;;;;5072707;28;20466;-52
2021/04/18 10:15:54;;;;;;;23.10;17.53;;;11.20;99.90;;;;;;5072538;28;20447;-52
2021/04/18 10:18:21;;;;;;;23.97;17.27;;;12.10;99.90;;;;;;5072297;28;20568;-51
2021/04/18 10:20:49;;;;;;;22.13;17.17;;;12.70;99.90;;;;;;5072622;28;20944;-51
2021/04/18 10:23:15;;;;;;;28.03;18.30;;;12.60;99.90;;;;;;5072359;28;20471;-51
2021/04/18 10:25:42;;;;;;;23.47;16.37;;;11.70;99.90;;;;;;5072214;28;20451;-52
2021/04/18 10:28:10;;;;;;;23.50;17.50;;;11.90;99.90;;;;;;5071683;28;20450;-51
2021/04/18 10:30:39;;;;;;;26.63;18.53;;;12.70;99.90;;;;;;5072195;28;20737;-51
2021/04/18 10:33:06;;;;;;;28.40;17.03;;;12.20;99.90;;;;;;5071353;28;20475;-52
2021/04/18 10:35:33;;;;;;;22.97;16.20;;;12.70;99.90;;;;;;5071078;28;20507;-51
2021/04/18 10:37:59;;;;;;;26.90;17.43;;;12.30;99.90;;;;;;5070580;28;20447;-52
2021/04/18 10:40:27;;;;;;;28.90;18.10;;;11.80;99.90;;;;;;5072227;28;20451;-53
2021/04/18 10:42:54;;;;;;;26.20;17.30;;;12.10;99.90;;;;;;5072018;28;20542;-52
2021/04/18 10:45:21;;;;;;;24.67;18.10;;;12.00;99.90;;;;;;5071903;28;20543;-52
2021/04/18 10:47:48;;;;;;;25.77;17.57;;;11.70;99.90;;;;;;5071311;28;20443;-52
2021/04/18 10:50:15;;;;;;;23.50;16.73;;;11.70;99.90;;;;;;5071615;28;20534;-52
2021/04/18 10:52:41;;;;;;;26.07;16.60;;;11.80;99.90;;;;;;5071907;28;20453;-52
2021/04/18 10:55:10;;;;;;;24.67;16.60;;;12.40;99.90;;;;;;5071640;28;20451;-51
2021/04/18 10:57:38;;;;;;;25.27;17.50;;;11.80;99.90;;;;;;5071185;28;20480;-52
2021/04/18 11:00:07;;;;;;;27.23;17.00;;;11.80;99.90;;;;;;5069732;28;20466;-52
2021/04/18 11:02:35;;;;;;;23.60;16.30;;;11.40;99.90;;;;;;5071053;28;20482;-51
2021/04/18 11:05:03;;;;;;;25.57;16.80;;;11.60;99.90;;;;;;5070594;28;20470;-52
2021/04/18 11:07:30;;;;;;;25.27;16.83;;;11.70;99.90;;;;;;5070757;28;20450;-52
2021/04/18 11:09:57;;;;;;;24.50;17.00;;;11.70;99.90;;;;;;5050166;28;21035;-50
2021/04/18 11:12:24;;;;;;;26.57;16.53;;;11.60;99.90;;;;;;5052947;28;20945;-51
2021/04/18 11:14:51;;;;;;;26.97;18.27;;;12.50;99.90;;;;;;5070884;28;20481;-51
2021/04/18 11:17:18;;;;;;;25.70;18.10;;;12.70;99.90;;;;;;5070635;28;20447;-51
2021/04/18 11:19:45;;;;;;;25.87;17.17;;;12.40;99.90;;;;;;5070600;28;20446;-51
2021/04/18 11:22:12;;;;;;;24.53;17.20;;;11.10;99.90;;;;;;5071493;28;20445;-51
2021/04/18 11:24:39;;;;;;;26.97;17.67;;;11.20;99.90;;;;;;5070894;28;20473;-51
2021/04/18 11:27:06;;;;;;;25.93;17.60;;;11.50;99.90;;;;;;5070642;28;20499;-51
2021/04/18 11:29:33;;;;;;;21.90;16.10;;;11.60;99.90;;;;;;5070995;28;20987;-52
2021/04/18 11:32:00;;;;;;;23.63;15.77;;;11.50;99.90;;;;;;5071383;28;20458;-51
2021/04/18 11:34:26;;;;;;;26.87;16.77;;;12.00;99.90;;;;;;5070076;28;20611;-51
2021/04/18 11:36:53;;;;;;;24.80;16.67;;;12.00;99.90;;;;;;5071557;28;20845;-50
2021/04/18 11:39:20;;;;;;;23.57;16.60;;;11.80;99.90;;;;;;5068535;28;20465;-51
2021/04/18 11:41:47;;;;;;;24.40;16.73;;;11.30;99.90;;;;;;5059916;28;20515;-51
2021/04/18 11:44:15;;;;;;;23.13;16.27;;;11.10;99.90;;;;;;5070661;28;20462;-51
2021/04/18 11:46:43;;;;;;;23.07;17.00;;;11.40;99.90;;;;;;5070943;28;20443;-52
2021/04/18 11:49:11;;;;;;;26.90;16.17;;;11.50;99.90;;;;;;5070209;28;20489;-50
2021/04/18 11:51:38;;;;;;;23.37;16.67;;;12.10;99.90;;;;;;5070043;28;20446;-50
2021/04/18 11:54:05;;;;;;;24.60;16.23;;;11.30;99.90;;;;;;5070048;28;20470;-51
2021/04/18 11:56:33;;;;;;;25.30;17.20;;;11.30;99.90;;;;;;5068628;28;20450;-50
2021/04/18 11:58:59;;;;;;;24.77;16.10;;;11.00;99.90;;;;;;5068561;28;20465;-49
2021/04/18 12:01:26;;;;;;;27.50;18.07;;;11.10;99.90;;;;;;5070563;28;20868;-50
2021/04/18 12:03:53;;;;;;;25.17;17.57;;;10.90;99.90;;;;;;5070431;28;20468;-50
2021/04/18 12:06:20;;;;;;;26.13;18.20;;;11.20;99.90;;;;;;5070251;28;20464;-50
2021/04/18 12:08:47;;;;;;;26.30;17.70;;;10.50;99.90;;;;;;5070142;28;21019;-51
2021/04/18 12:11:14;;;;;;;28.80;18.13;;;11.10;99.90;;;;;;5070558;28;20493;-50
2021/04/18 12:13:41;;;;;;;28.87;18.57;;;11.40;99.90;;;;;;5066188;28;20517;-51
2021/04/18 12:16:09;;;;;;;29.03;18.00;;;10.90;99.90;;;;;;5070718;28;20454;-51
2021/04/18 12:18:36;;;;;;;27.70;16.93;;;10.60;99.90;;;;;;5065708;28;20458;-51
2021/04/18 12:21:02;;;;;;;27.67;17.50;;;10.70;99.90;;;;;;5070741;28;20465;-51
2021/04/18 12:23:29;;;;;;;29.20;17.83;;;10.70;99.90;;;;;;5070942;28;20475;-50
2021/04/18 12:25:55;;;;;;;22.23;15.27;;;10.70;99.90;;;;;;5070868;28;20959;-50
2021/04/18 12:28:22;;;;;;;24.80;15.80;;;11.10;99.90;;;;;;5070359;28;20464;-50
2021/04/18 12:30:49;;;;;;;23.80;15.23;;;10.70;99.90;;;;;;5070181;28;20984;-49
2021/04/18 12:33:16;;;;;;;25.13;16.10;;;10.50;99.90;;;;;;5074436;28;20537;-50
2021/04/18 12:35:42;;;;;;;25.77;15.40;;;10.90;99.90;;;;;;5074448;28;20453;-50
2021/04/18 12:38:09;;;;;;;22.30;15.00;;;11.00;99.90;;;;;;5074084;28;20967;-50
2021/04/18 12:40:35;;;;;;;22.97;14.90;;;11.10;99.90;;;;;;5074413;28;20954;-49